Terminal Aerodrome Forecast
Issued by NWS

Home | Current Version | Previous Version | Text Only | Print | Product List | Glossary On
Versions: 1 2 3 4 5 6 7 8 9 10 11 12 13 14 15
000
FTUS45 KBOI 291930 AAA
TAFMYL
TAF AMD
KMYL 291930Z 2920/3018 17012KT P6SM SCT080 SCT250
     FM292100 20008G16KT P6SM BKN080 BKN250
     FM300100 33006KT P6SM FEW050=

USA.gov is the U.S. government's official web portal to all federal, state and local government web resources and services.